createdAt,value
2023-07-21T00:02:27.658Z,89.90
2023-07-21T00:05:50.028Z,89.70
2023-07-21T00:09:12.624Z,89.40
2023-07-21T00:12:39.478Z,89.20
2023-07-21T00:16:04.906Z,89.10
2023-07-21T00:19:27.178Z,89.20
2023-07-21T00:22:49.883Z,89.30
2023-07-21T00:26:14.626Z,89.00
2023-07-21T00:29:37.027Z,88.80
2023-07-21T00:33:00.233Z,88.80
2023-07-21T00:36:22.828Z,88.70
2023-07-21T00:39:46.102Z,89.00
2023-07-21T00:43:11.146Z,88.90
2023-07-21T00:46:33.545Z,88.90
2023-07-21T00:49:57.807Z,89.20
2023-07-21T00:53:21.324Z,89.30
2023-07-21T00:56:44.266Z,89.30
2023-07-21T01:00:11.933Z,89.40
2023-07-21T01:03:36.627Z,89.30
2023-07-21T01:07:00.327Z,89.40
2023-07-21T01:10:22.992Z,89.50
2023-07-21T01:13:45.656Z,89.70
2023-07-21T01:17:09.533Z,89.80
2023-07-21T01:20:32.615Z,89.70
2023-07-21T01:24:05.602Z,89.70
2023-07-21T01:27:28.306Z,89.30
2023-07-21T01:30:54.354Z,89.40
2023-07-21T01:34:18.778Z,89.30
2023-07-21T01:37:43.488Z,89.30
2023-07-21T01:41:07.925Z,89.10
2023-07-21T01:44:30.258Z,89.10
2023-07-21T01:47:52.619Z,89.20
2023-07-21T01:51:21.916Z,89.10
2023-07-21T01:54:57.736Z,89.00
2023-07-21T01:58:21.196Z,89.10
2023-07-21T02:01:44.816Z,88.90
2023-07-21T02:05:17.948Z,88.80
2023-07-21T02:08:40.473Z,88.90
2023-07-21T02:12:02.907Z,88.90
2023-07-21T02:15:37.296Z,88.90
2023-07-21T02:18:59.622Z,88.90
2023-07-21T02:22:21.824Z,88.80
2023-07-21T02:25:45.437Z,88.80
2023-07-21T02:29:07.715Z,88.70
2023-07-21T02:32:30.372Z,88.80
2023-07-21T02:35:53.016Z,89.00
2023-07-21T02:39:15.907Z,89.00
2023-07-21T02:42:38.150Z,89.20
2023-07-21T02:46:00.533Z,89.20
2023-07-21T02:49:22.873Z,89.20
2023-07-21T02:52:45.486Z,89.00
2023-07-21T02:56:09.084Z,88.90
2023-07-21T02:59:51.847Z,88.90
2023-07-21T03:03:24.493Z,88.80
2023-07-21T03:06:49.693Z,88.50
2023-07-21T03:10:12.514Z,88.50
2023-07-21T03:13:35.569Z,88.40
2023-07-21T03:16:58.024Z,88.30
2023-07-21T03:20:20.597Z,88.30
2023-07-21T03:23:43.904Z,88.30
2023-07-21T03:27:06.895Z,88.20
2023-07-21T03:30:32.534Z,88.10
2023-07-21T03:34:05.571Z,87.90
2023-07-21T03:37:29.614Z,87.50
2023-07-21T03:41:03.178Z,87.30
2023-07-21T03:44:28.270Z,87.30
2023-07-21T03:47:50.550Z,87.20
2023-07-21T03:51:13.034Z,86.90
2023-07-21T03:54:39.291Z,86.90
2023-07-21T03:58:01.762Z,86.80
2023-07-21T04:01:24.020Z,86.90
2023-07-21T04:04:47.982Z,86.60
2023-07-21T04:08:10.396Z,86.60
2023-07-21T04:11:32.877Z,86.40
2023-07-21T04:14:55.518Z,86.50
2023-07-21T04:18:17.826Z,86.40
2023-07-21T04:21:40.031Z,87.10
2023-07-21T04:25:03.274Z,86.20
2023-07-21T04:28:25.563Z,86.40
2023-07-21T04:31:47.887Z,86.20
2023-07-21T04:35:10.963Z,86.10
2023-07-21T04:38:36.538Z,86.10
2023-07-21T04:42:05.926Z,86.10
2023-07-21T04:45:28.315Z,85.90
2023-07-21T04:49:01.750Z,85.80
2023-07-21T04:52:38.198Z,86.40
2023-07-21T04:56:02.562Z,85.60
2023-07-21T04:59:30.163Z,85.80
2023-07-21T05:02:52.461Z,85.70
2023-07-21T05:06:16.458Z,85.80
2023-07-21T05:09:43.559Z,85.90
2023-07-21T05:13:09.170Z,85.80
2023-07-21T05:16:46.961Z,85.50
2023-07-21T05:20:40.737Z,85.60
2023-07-21T05:24:23.820Z,85.80
2023-07-21T05:27:50.133Z,85.90
2023-07-21T05:31:13.424Z,85.60
2023-07-21T05:34:50.417Z,85.50
2023-07-21T05:38:14.561Z,85.50
2023-07-21T05:41:36.880Z,86.10
2023-07-21T05:44:59.168Z,86.20
2023-07-21T05:48:21.725Z,86.10
2023-07-21T05:51:45.450Z,86.60
2023-07-21T05:55:17.874Z,86.20
2023-07-21T05:58:41.984Z,87.10
2023-07-21T06:02:04.488Z,86.70
2023-07-21T06:05:33.358Z,87.10
2023-07-21T06:09:01.679Z,87.30
2023-07-21T06:12:59.543Z,87.50
2023-07-21T06:16:33.782Z,87.30
2023-07-21T06:19:57.903Z,87.10
2023-07-21T06:23:21.584Z,87.40
2023-07-21T06:26:44.596Z,88.30
2023-07-21T06:30:09.198Z,87.90
2023-07-21T06:33:38.834Z,87.80
2023-07-21T06:37:24.416Z,87.90
2023-07-21T06:41:06.167Z,87.20
2023-07-21T06:44:47.477Z,87.20
2023-07-21T06:48:32.158Z,88.40
2023-07-21T06:52:10.022Z,87.90
2023-07-21T06:55:35.935Z,87.00
2023-07-21T06:58:58.688Z,86.80
2023-07-21T07:02:20.973Z,87.00
2023-07-21T07:05:47.183Z,87.20
2023-07-21T07:09:09.910Z,87.20
2023-07-21T07:12:33.450Z,87.30
2023-07-21T07:15:55.778Z,87.60
2023-07-21T07:19:20.392Z,87.80
2023-07-21T07:22:42.725Z,87.80
2023-07-21T07:26:06.460Z,87.90
2023-07-21T07:29:29.098Z,88.10
2023-07-21T07:32:51.351Z,88.30
2023-07-21T07:36:14.069Z,88.40
2023-07-21T07:39:36.788Z,88.60
2023-07-21T07:42:59.023Z,88.90
2023-07-21T07:46:21.343Z,89.30
2023-07-21T07:49:43.561Z,89.70
2023-07-21T07:53:07.299Z,90.00
2023-07-21T07:56:29.544Z,90.00
2023-07-21T07:59:52.072Z,90.00
2023-07-21T08:03:15.285Z,89.60
2023-07-21T08:06:37.623Z,90.00
2023-07-21T08:10:01.457Z,90.50
2023-07-21T08:13:23.624Z,90.40
2023-07-21T08:16:46.054Z,90.20
2023-07-21T08:20:09.932Z,89.80
2023-07-21T08:23:32.200Z,88.60
2023-07-21T08:26:54.415Z,88.50
2023-07-21T08:30:16.729Z,88.30
2023-07-21T08:33:39.891Z,86.60
2023-07-21T08:37:02.190Z,86.70
2023-07-21T08:40:24.607Z,86.90
2023-07-21T08:43:49.208Z,86.10
2023-07-21T08:47:11.892Z,85.80
2023-07-21T08:50:38.830Z,86.00
2023-07-21T08:54:01.150Z,85.20
2023-07-21T08:57:23.885Z,84.50
2023-07-21T09:00:46.127Z,84.20
2023-07-21T09:04:19.786Z,83.70
2023-07-21T09:07:43.133Z,82.30
2023-07-21T09:11:05.755Z,81.90
2023-07-21T09:14:44.650Z,82.20
2023-07-21T09:18:07.825Z,84.70
2023-07-21T09:21:30.312Z,82.10
2023-07-21T09:24:53.166Z,79.30
2023-07-21T09:28:15.527Z,81.60
2023-07-21T09:31:40.332Z,79.10
2023-07-21T09:35:04.378Z,81.10
2023-07-21T09:38:29.184Z,78.30
2023-07-21T09:41:53.280Z,81.80
2023-07-21T09:45:17.035Z,82.00
2023-07-21T09:48:39.516Z,82.30
2023-07-21T09:52:02.527Z,81.90
2023-07-21T09:55:27.607Z,79.80
2023-07-21T09:58:58.591Z,81.30
2023-07-21T10:02:22.708Z,82.00
2023-07-21T10:05:44.967Z,79.70
2023-07-21T10:09:10.492Z,79.40
2023-07-21T10:12:53.963Z,78.90
2023-07-21T10:16:21.828Z,76.90
2023-07-21T10:19:45.971Z,78.40
2023-07-21T10:23:09.551Z,76.30
2023-07-21T10:26:31.868Z,75.70
2023-07-21T10:30:20.701Z,75.50
2023-07-21T10:33:43.054Z,75.00
2023-07-21T10:37:06.301Z,74.90
2023-07-21T10:40:28.995Z,75.30
2023-07-21T10:43:51.174Z,74.20
2023-07-21T10:47:17.365Z,74.60
2023-07-21T10:50:52.554Z,74.50
2023-07-21T10:54:15.836Z,74.20
2023-07-21T10:57:38.795Z,74.00
2023-07-21T11:01:01.373Z,74.10
2023-07-21T11:04:24.306Z,73.70
2023-07-21T11:07:46.584Z,73.60
2023-07-21T11:11:12.431Z,73.90
2023-07-21T11:14:34.666Z,73.50
2023-07-21T11:18:04.636Z,73.70
2023-07-21T11:21:27.102Z,74.20
2023-07-21T11:25:09.073Z,73.90
2023-07-21T11:28:31.553Z,74.30
2023-07-21T11:31:53.803Z,74.20
2023-07-21T11:35:16.198Z,73.30
2023-07-21T11:38:39.894Z,73.10
2023-07-21T11:42:02.537Z,73.30
2023-07-21T11:45:34.840Z,72.70
2023-07-21T11:48:57.048Z,72.50
2023-07-21T11:52:25.890Z,72.90
2023-07-21T11:55:48.759Z,72.60
2023-07-21T11:59:11.338Z,72.60
2023-07-21T12:02:35.472Z,72.60
2023-07-21T12:05:57.947Z,72.20
2023-07-21T12:09:20.781Z,72.30
2023-07-21T12:12:43.051Z,72.80
2023-07-21T12:16:05.714Z,72.60
2023-07-21T12:19:28.237Z,72.90
2023-07-21T12:22:50.429Z,72.60
2023-07-21T12:26:12.661Z,71.90
2023-07-21T12:29:44.745Z,71.10
2023-07-21T12:33:08.407Z,71.10
2023-07-21T12:36:30.791Z,71.60
2023-07-21T12:39:53.309Z,71.10
2023-07-21T12:43:15.504Z,70.60
2023-07-21T12:46:37.790Z,70.80
2023-07-21T12:50:00.290Z,70.50
2023-07-21T12:53:22.589Z,69.80
2023-07-21T12:56:45.037Z,69.80
2023-07-21T13:00:08.383Z,70.20
2023-07-21T13:03:30.943Z,69.70
2023-07-21T13:06:55.088Z,70.80
2023-07-21T13:10:17.486Z,71.10
2023-07-21T13:13:42.119Z,70.70
2023-07-21T13:17:05.121Z,70.10
2023-07-21T13:20:27.499Z,69.70
2023-07-21T13:23:49.738Z,68.90
2023-07-21T13:27:11.958Z,69.70
2023-07-21T13:30:34.196Z,69.40
2023-07-21T13:33:57.434Z,68.90
2023-07-21T13:37:19.960Z,68.50
2023-07-21T13:40:42.198Z,68.10
2023-07-21T13:44:04.494Z,68.10
2023-07-21T13:47:26.895Z,67.30
2023-07-21T13:50:49.284Z,67.30
2023-07-21T13:54:14.205Z,68.20
2023-07-21T13:57:36.797Z,68.60
2023-07-21T14:00:59.164Z,68.50
2023-07-21T14:04:21.433Z,68.40
2023-07-21T14:07:45.760Z,68.30
2023-07-21T14:11:09.938Z,67.60
2023-07-21T14:14:32.220Z,67.50
2023-07-21T14:17:54.488Z,67.50
2023-07-21T14:21:16.802Z,66.20
2023-07-21T14:24:39.154Z,66.40
2023-07-21T14:28:01.884Z,68.00
2023-07-21T14:31:24.221Z,67.40
2023-07-21T14:34:46.524Z,68.40
2023-07-21T14:38:10.626Z,67.40
2023-07-21T14:41:33.535Z,67.60
2023-07-21T14:44:55.874Z,66.70
2023-07-21T14:48:20.925Z,67.20
2023-07-21T14:51:43.893Z,69.00
2023-07-21T14:55:10.201Z,69.00
2023-07-21T14:58:32.516Z,66.90
2023-07-21T15:01:56.614Z,67.10
2023-07-21T15:05:19.631Z,70.70
2023-07-21T15:08:41.843Z,67.60
2023-07-21T15:12:05.182Z,67.60
2023-07-21T15:15:27.477Z,67.60
2023-07-21T15:18:49.701Z,67.30
2023-07-21T15:22:12.132Z,66.30
2023-07-21T15:25:34.385Z,66.30
2023-07-21T15:28:56.774Z,66.60
2023-07-21T15:32:19.119Z,67.40
2023-07-21T15:35:46.423Z,66.90
2023-07-21T15:39:08.878Z,67.60
2023-07-21T15:42:31.083Z,66.60
2023-07-21T15:45:53.600Z,64.50
2023-07-21T15:49:15.811Z,66.10
2023-07-21T15:52:44.543Z,67.20
2023-07-21T15:56:07.179Z,65.20
2023-07-21T15:59:29.379Z,67.40
2023-07-21T16:02:51.652Z,66.90
2023-07-21T16:06:13.945Z,65.20
2023-07-21T16:09:36.181Z,63.90
2023-07-21T16:12:58.501Z,65.00
2023-07-21T16:16:21.421Z,69.40
2023-07-21T16:19:43.800Z,67.10
2023-07-21T16:23:06.444Z,64.30
2023-07-21T16:26:30.213Z,64.60
2023-07-21T16:29:54.127Z,64.00
2023-07-21T16:33:16.413Z,64.20
2023-07-21T16:36:38.779Z,63.90
2023-07-21T16:40:01.774Z,64.20
2023-07-21T16:43:24.425Z,64.20
2023-07-21T16:46:46.764Z,63.40
2023-07-21T16:50:10.481Z,63.90
2023-07-21T16:53:32.699Z,65.20
2023-07-21T16:56:54.947Z,63.70
2023-07-21T17:00:19.509Z,65.00
2023-07-21T17:03:42.404Z,63.70
2023-07-21T17:07:05.293Z,64.40
2023-07-21T17:10:27.556Z,63.50
2023-07-21T17:13:49.798Z,63.90
2023-07-21T17:17:12.106Z,62.90
2023-07-21T17:20:34.553Z,62.30
2023-07-21T17:23:56.817Z,63.10
2023-07-21T17:27:19.030Z,62.60
2023-07-21T17:30:41.513Z,62.40
2023-07-21T17:34:03.714Z,62.70
2023-07-21T17:37:26.035Z,63.50
2023-07-21T17:41:01.248Z,63.50
2023-07-21T17:44:24.226Z,63.80
2023-07-21T17:47:47.707Z,64.10
2023-07-21T17:51:10.118Z,66.70
2023-07-21T17:54:32.388Z,65.00
2023-07-21T17:57:55.275Z,65.90
2023-07-21T18:01:17.630Z,64.50
2023-07-21T18:04:40.818Z,64.60
2023-07-21T18:08:04.504Z,66.20
2023-07-21T18:11:26.962Z,66.10
2023-07-21T18:14:52.577Z,65.80
2023-07-21T18:18:15.165Z,65.80
2023-07-21T18:21:37.402Z,65.30
2023-07-21T18:25:00.071Z,65.80
2023-07-21T18:28:22.312Z,65.30
2023-07-21T18:31:44.652Z,65.70
2023-07-21T18:35:07.385Z,66.30
2023-07-21T18:38:29.608Z,66.40
2023-07-21T18:41:51.789Z,66.90
2023-07-21T18:45:14.069Z,67.40
2023-07-21T18:48:36.418Z,66.90
2023-07-21T18:51:58.680Z,66.90
2023-07-21T18:55:21.486Z,67.00
2023-07-21T18:58:43.724Z,67.10
2023-07-21T19:02:06.615Z,67.00
2023-07-21T19:05:28.928Z,67.10
2023-07-21T19:08:51.761Z,66.90
2023-07-21T19:12:14.019Z,66.80
2023-07-21T19:15:38.212Z,66.50
2023-07-21T19:19:00.493Z,66.30
2023-07-21T19:22:22.735Z,65.80
2023-07-21T19:25:52.329Z,66.00
2023-07-21T19:29:14.542Z,65.80
2023-07-21T19:32:36.820Z,65.80
2023-07-21T19:35:59.119Z,65.90
2023-07-21T19:39:21.361Z,66.00
2023-07-21T19:42:43.535Z,67.10
2023-07-21T19:46:05.793Z,68.60
2023-07-21T19:49:28.003Z,68.30
2023-07-21T19:52:50.582Z,67.80
2023-07-21T19:56:14.423Z,66.90
2023-07-21T19:59:36.627Z,66.60
2023-07-21T20:02:59.355Z,66.60
2023-07-21T20:06:21.608Z,66.60
2023-07-21T20:09:43.785Z,66.80
2023-07-21T20:13:06.117Z,66.70
2023-07-21T20:16:28.499Z,66.60
2023-07-21T20:19:50.783Z,66.90
2023-07-21T20:23:13.060Z,66.90
2023-07-21T20:26:35.380Z,67.00
2023-07-21T20:29:57.602Z,67.10
2023-07-21T20:33:19.997Z,67.40
2023-07-21T20:36:44.019Z,67.40
2023-07-21T20:40:07.483Z,67.50
2023-07-21T20:43:29.817Z,67.60
2023-07-21T20:46:52.789Z,67.70
2023-07-21T20:50:15.276Z,68.00
2023-07-21T20:53:37.811Z,68.20
2023-07-21T20:57:00.002Z,68.30
2023-07-21T21:00:24.463Z,68.70
2023-07-21T21:03:47.057Z,68.80
2023-07-21T21:07:09.543Z,69.10
2023-07-21T21:10:31.781Z,69.40
2023-07-21T21:13:54.001Z,69.60
2023-07-21T21:17:16.294Z,69.80
2023-07-21T21:20:38.700Z,70.20
2023-07-21T21:24:00.956Z,70.50
2023-07-21T21:27:23.272Z,70.70
2023-07-21T21:30:45.521Z,71.00
2023-07-21T21:34:07.759Z,71.30
2023-07-21T21:37:29.966Z,71.50
2023-07-21T21:40:55.068Z,71.80
2023-07-21T21:44:17.956Z,72.10
2023-07-21T21:47:40.305Z,72.30
2023-07-21T21:51:02.550Z,72.40
2023-07-21T21:54:24.831Z,72.60
2023-07-21T21:57:47.151Z,72.80
2023-07-21T22:01:10.195Z,73.10
2023-07-21T22:04:32.539Z,73.00
2023-07-21T22:07:54.762Z,73.50
2023-07-21T22:11:16.965Z,73.50
2023-07-21T22:14:54.550Z,73.40
2023-07-21T22:18:18.091Z,73.80
2023-07-21T22:21:40.405Z,73.90
2023-07-21T22:25:02.978Z,74.10
2023-07-21T22:28:25.311Z,74.30
2023-07-21T22:31:49.757Z,75.30
2023-07-21T22:35:11.998Z,74.60
2023-07-21T22:38:35.118Z,74.80
2023-07-21T22:41:57.349Z,74.80
2023-07-21T22:45:19.641Z,74.60
2023-07-21T22:48:41.912Z,74.60
2023-07-21T22:52:04.894Z,75.00
2023-07-21T22:55:27.215Z,74.70
2023-07-21T22:58:49.406Z,74.90
2023-07-21T23:02:11.639Z,75.00
2023-07-21T23:05:33.931Z,75.20
2023-07-21T23:08:56.209Z,75.40
2023-07-21T23:12:18.653Z,75.20
2023-07-21T23:15:40.950Z,75.20
2023-07-21T23:19:03.233Z,75.30
2023-07-21T23:22:25.581Z,75.40
2023-07-21T23:25:48.650Z,76.20
2023-07-21T23:29:11.127Z,75.50
2023-07-21T23:32:33.384Z,75.50
2023-07-21T23:35:55.822Z,75.60
2023-07-21T23:39:18.078Z,75.50
2023-07-21T23:42:45.297Z,75.40
2023-07-21T23:46:07.540Z,75.40
2023-07-21T23:49:29.797Z,75.50
2023-07-21T23:52:52.119Z,75.60
2023-07-21T23:56:14.321Z,75.80
2023-07-21T23:59:36.489Z,76.00
